Terminal Aerodrome Forecast
Issued by NWS Corpus Christi, TX

Current Version | Previous Version | Text Only | Print | Product List | Glossary Off
Versions: 1 2 3 4 5 6 7 8 9 10 11 12 13 14 15 16

207
FTUS44 KCRP 171120
TAFCRP
TAF
KCRP 171120Z 1712/1812 01015KT P6SM OVC070
     FM172000 03010KT P6SM BKN060
     FM180900 01010KT P6SM SCT025 OVC035=

USA.gov is the U.S. government's official web portal to all federal, state and local government web resources and services.